Time,TemperatureF,DewpointF,PressureIn,WindDirection,WindDirectionDegrees,WindSpeedMPH,WindSpeedGustMPH,Humidity,HourlyPrecipIn,Conditions,Clouds,dailyrainin,SoftwareType,DateUTC
2013-04-11 00:31:00,56.2,54.0,30.07,NE,44,4.0,7.0,92,0.00,,,0.00,weatherlink.com 1.10,2013-04-10 22:31:00,
2013-04-11 00:46:00,56.3,54.0,30.07,NE,37,5.0,7.0,92,0.00,,,0.00,weatherlink.com 1.10,2013-04-10 22:46:00,
2013-04-11 01:01:00,56.1,54.0,30.07,NNE,32,6.0,6.0,92,0.00,,,0.00,weatherlink.com 1.10,2013-04-10 23:01:00,
2013-04-11 01:15:00,55.8,54.0,30.06,NE,36,4.0,8.0,93,0.00,,,0.00,weatherlink.com 1.10,2013-04-10 23:15:00,
2013-04-11 01:30:00,55.6,54.0,30.06,North,6,4.0,9.0,94,0.00,,,0.00,weatherlink.com 1.10,2013-04-10 23:30:00,
2013-04-11 01:45:00,55.9,54.0,30.06,NE,44,3.0,9.0,94,0.00,,,0.00,weatherlink.com 1.10,2013-04-10 23:45:00,
2013-04-11 02:00:00,56.0,54.0,30.05,NE,38,8.0,10.0,93,0.00,,,0.00,weatherlink.com 1.10,2013-04-11 00:00:00,
2013-04-11 02:15:00,56.0,54.0,30.05,NNE,30,6.0,11.0,93,0.00,,,0.00,weatherlink.com 1.10,2013-04-11 00:15:00,
2013-04-11 02:30:00,56.3,54.0,30.05,NNE,24,7.0,10.0,91,0.00,,,0.00,weatherlink.com 1.10,2013-04-11 00:30:00,
2013-04-11 02:45:00,56.2,54.0,30.04,NE,51,4.0,11.0,92,0.00,,,0.00,weatherlink.com 1.10,2013-04-11 00:45:00,
2013-04-11 03:00:00,56.2,54.0,30.04,NNE,26,4.0,10.0,92,0.00,,,0.00,weatherlink.com 1.10,2013-04-11 01:00:00,
2013-04-11 03:15:00,56.0,54.0,30.03,NNE,19,5.0,9.0,92,0.00,,,0.00,weatherlink.com 1.10,2013-04-11 01:15:00,
2013-04-11 03:30:00,55.7,54.0,30.03,NNE,20,8.0,10.0,93,0.00,,,0.00,weatherlink.com 1.10,2013-04-11 01:30:00,
2013-04-11 03:46:00,56.1,54.0,30.01,NNE,16,4.0,10.0,94,0.00,,,0.00,weatherlink.com 1.10,2013-04-11 01:46:00,
2013-04-11 04:01:00,56.1,55.0,30.01,NNW,347,4.0,10.0,95,0.00,,,0.00,weatherlink.com 1.10,2013-04-11 02:01:00,
2013-04-11 04:16:00,56.1,55.0,30.00,NNE,28,4.0,9.0,95,0.00,,,0.00,weatherlink.com 1.10,2013-04-11 02:16:00,
2013-04-11 05:46:00,56.5,55.0,29.99,NE,36,8.0,9.0,96,0.00,,,0.00,weatherlink.com 1.10,2013-04-11 03:46:00,
2013-04-11 06:01:00,56.2,55.0,29.99,NNE,27,5.0,8.0,96,0.00,,,0.00,weatherlink.com 1.10,2013-04-11 04:01:00,
2013-04-11 06:16:00,56.1,55.0,29.98,North,352,6.0,11.0,96,0.00,,,0.00,weatherlink.com 1.10,2013-04-11 04:16:00,
2013-04-11 06:31:00,56.2,55.0,29.98,NE,41,11.0,15.0,96,0.00,,,0.00,weatherlink.com 1.10,2013-04-11 04:31:00,
2013-04-11 06:46:00,56.2,55.0,29.98,North,1,6.0,16.0,95,0.00,,,0.00,weatherlink.com 1.10,2013-04-11 04:46:00,
2013-04-11 07:01:00,56.0,55.0,29.98,NNE,13,8.0,16.0,96,0.00,,,0.00,weatherlink.com 1.10,2013-04-11 05:01:00,
2013-04-11 07:16:00,56.0,55.0,29.98,North,6,6.0,13.0,96,0.00,,,0.00,weatherlink.com 1.10,2013-04-11 05:16:00,
2013-04-11 07:31:00,55.7,55.0,29.97,NNE,18,12.0,15.0,96,0.00,,,0.00,weatherlink.com 1.10,2013-04-11 05:31:00,
2013-04-11 07:46:00,56.1,55.0,29.98,NE,34,11.0,15.0,96,0.00,,,0.00,weatherlink.com 1.10,2013-04-11 05:46:00,
2013-04-11 08:01:00,56.6,56.0,29.98,NE,42,9.0,14.0,96,0.00,,,0.00,weatherlink.com 1.10,2013-04-11 06:01:00,
2013-04-11 08:16:00,56.8,56.0,29.99,NNE,26,8.0,14.0,96,0.00,,,0.00,weatherlink.com 1.10,2013-04-11 06:16:00,
2013-04-11 08:31:00,57.2,56.0,29.98,NNE,18,10.0,13.0,95,0.00,,,0.00,weatherlink.com 1.10,2013-04-11 06:31:00,
2013-04-11 08:46:00,58.2,57.0,29.98,ENE,57,6.0,16.0,94,0.00,,,0.00,weatherlink.com 1.10,2013-04-11 06:46:00,
2013-04-11 09:01:00,58.6,57.0,29.99,NNE,20,10.0,13.0,93,0.00,,,0.00,weatherlink.com 1.10,2013-04-11 07:01:00,
2013-04-11 09:17:00,58.9,57.0,29.99,NNE,24,14.0,16.0,93,0.00,,,0.00,weatherlink.com 1.10,2013-04-11 07:17:00,
2013-04-11 09:32:00,59.3,57.0,29.98,NNE,33,6.0,14.0,92,0.00,,,0.00,weatherlink.com 1.10,2013-04-11 07:32:00,
2013-04-11 09:47:00,59.8,58.0,29.99,NNE,30,10.0,14.0,92,0.00,,,0.00,weatherlink.com 1.10,2013-04-11 07:47:00,
2013-04-11 10:02:00,60.8,58.0,29.99,NNW,348,10.0,15.0,91,0.00,,,0.00,weatherlink.com 1.10,2013-04-11 08:02:00,
2013-04-11 10:17:00,61.7,59.0,29.99,NE,53,10.0,15.0,89,0.00,,,0.00,weatherlink.com 1.10,2013-04-11 08:17:00,
2013-04-11 10:32:00,62.6,59.0,29.99,NE,41,10.0,18.0,89,0.00,,,0.00,weatherlink.com 1.10,2013-04-11 08:32:00,
2013-04-11 10:47:00,63.7,60.0,29.99,NE,41,16.0,18.0,87,0.00,,,0.00,weatherlink.com 1.10,2013-04-11 08:47:00,
2013-04-11 11:02:00,64.6,60.0,29.99,NNE,30,7.0,15.0,84,0.00,,,0.00,weatherlink.com 1.10,2013-04-11 09:02:00,
2013-04-11 11:17:00,65.6,60.0,29.99,NE,36,12.0,17.0,81,0.00,,,0.00,weatherlink.com 1.10,2013-04-11 09:17:00,
2013-04-11 11:32:00,67.1,59.0,29.98,NE,53,16.0,19.0,76,0.00,,,0.00,weatherlink.com 1.10,2013-04-11 09:32:00,
2013-04-11 11:47:00,67.8,59.0,29.98,NE,53,14.0,20.0,73,0.00,,,0.00,weatherlink.com 1.10,2013-04-11 09:47:00,
2013-04-11 12:02:00,68.3,59.0,29.98,NNE,24,11.0,18.0,71,0.00,,,0.00,weatherlink.com 1.10,2013-04-11 10:02:00,
2013-04-11 12:17:00,68.1,60.0,29.98,NNE,30,10.0,17.0,75,0.00,,,0.00,weatherlink.com 1.10,2013-04-11 10:17:00,
2013-04-11 12:32:00,66.8,59.0,29.98,NE,46,14.0,23.0,76,0.00,,,0.00,weatherlink.com 1.10,2013-04-11 10:32:00,
2013-04-11 12:47:00,67.0,58.0,29.97,NNE,32,19.0,23.0,72,0.00,,,0.00,weatherlink.com 1.10,2013-04-11 10:47:00,
2013-04-11 13:02:00,67.0,57.0,29.97,NE,47,13.0,21.0,71,0.00,,,0.00,weatherlink.com 1.10,2013-04-11 11:02:00,
2013-04-11 13:17:00,67.0,57.0,29.97,NNE,20,10.0,20.0,70,0.00,,,0.00,weatherlink.com 1.10,2013-04-11 11:17:00,
2013-04-11 13:32:00,67.0,56.0,29.97,NNE,13,14.0,22.0,69,0.00,,,0.00,weatherlink.com 1.10,2013-04-11 11:32:00,
2013-04-11 13:47:00,67.2,56.0,29.96,NE,40,9.0,21.0,67,0.00,,,0.00,weatherlink.com 1.10,2013-04-11 11:47:00,
2013-04-11 14:02:00,67.4,56.0,29.95,NNE,23,17.0,19.0,66,0.00,,,0.00,weatherlink.com 1.10,2013-04-11 12:02:00,
2013-04-11 14:17:00,68.1,56.0,29.95,NNE,12,7.0,20.0,66,0.00,,,0.00,weatherlink.com 1.10,2013-04-11 12:17:00,
2013-04-11 14:32:00,67.8,56.0,29.95,NNE,22,22.0,23.0,66,0.00,,,0.00,weatherlink.com 1.10,2013-04-11 12:32:00,
2013-04-11 14:47:00,67.8,58.0,29.94,NNE,16,7.0,21.0,70,0.00,,,0.00,weatherlink.com 1.10,2013-04-11 12:47:00,
2013-04-11 15:02:00,67.1,58.0,29.94,NE,39,15.0,20.0,72,0.00,,,0.00,weatherlink.com 1.10,2013-04-11 13:02:00,
2013-04-11 15:17:00,68.1,58.0,29.93,ENE,65,7.0,17.0,71,0.00,,,0.00,weatherlink.com 1.10,2013-04-11 13:17:00,
2013-04-11 15:32:00,68.3,57.0,29.93,ENE,65,18.0,23.0,68,0.00,,,0.00,weatherlink.com 1.10,2013-04-11 13:32:00,
2013-04-11 15:47:00,67.1,58.0,29.92,NNE,16,17.0,25.0,72,0.00,,,0.00,weatherlink.com 1.10,2013-04-11 13:47:00,
2013-04-11 16:03:00,67.2,57.0,29.92,NE,36,15.0,23.0,71,0.00,,,0.00,weatherlink.com 1.10,2013-04-11 14:03:00,
2013-04-11 16:18:00,66.6,59.0,29.91,NE,44,11.0,24.0,76,0.00,,,0.00,weatherlink.com 1.10,2013-04-11 14:18:00,
2013-04-11 16:33:00,65.9,59.0,29.90,NNE,33,16.0,22.0,78,0.00,,,0.00,weatherlink.com 1.10,2013-04-11 14:33:00,
2013-04-11 16:48:00,65.7,59.0,29.89,NNE,20,17.0,23.0,78,0.00,,,0.00,weatherlink.com 1.10,2013-04-11 14:48:00,
2013-04-11 17:03:00,65.5,59.0,29.89,NNE,25,21.0,26.0,79,0.00,,,0.00,weatherlink.com 1.10,2013-04-11 15:03:00,
2013-04-11 17:18:00,65.2,59.0,29.88,ENE,69,18.0,26.0,79,0.00,,,0.00,weatherlink.com 1.10,2013-04-11 15:18:00,
2013-04-11 17:33:00,65.2,59.0,29.88,NE,53,17.0,24.0,79,0.00,,,0.00,weatherlink.com 1.10,2013-04-11 15:33:00,
2013-04-11 17:48:00,65.0,58.0,29.88,NNE,26,24.0,28.0,78,0.00,,,0.00,weatherlink.com 1.10,2013-04-11 15:48:00,
2013-04-11 18:03:00,64.2,58.0,29.88,NNE,27,12.0,26.0,80,0.00,,,0.00,weatherlink.com 1.10,2013-04-11 16:03:00,
2013-04-11 18:18:00,63.7,58.0,29.88,NE,34,14.0,23.0,81,0.00,,,0.00,weatherlink.com 1.10,2013-04-11 16:18:00,
2013-04-11 18:33:00,63.2,58.0,29.88,NE,44,15.0,21.0,82,0.00,,,0.00,weatherlink.com 1.10,2013-04-11 16:33:00,
2013-04-11 18:48:00,63.1,58.0,29.88,ENE,70,16.0,18.0,82,0.00,,,0.00,weatherlink.com 1.10,2013-04-11 16:48:00,
2013-04-11 19:03:00,62.7,58.0,29.89,NNW,339,3.0,18.0,83,0.00,,,0.00,weatherlink.com 1.10,2013-04-11 17:03:00,
2013-04-11 19:18:00,62.2,57.0,29.89,NE,44,15.0,16.0,84,0.00,,,0.00,weatherlink.com 1.10,2013-04-11 17:18:00,
2013-04-11 19:33:00,61.6,57.0,29.89,NNE,27,12.0,16.0,85,0.00,,,0.00,weatherlink.com 1.10,2013-04-11 17:33:00,
2013-04-11 19:48:00,61.1,57.0,29.88,NE,37,13.0,20.0,86,0.00,,,0.00,weatherlink.com 1.10,2013-04-11 17:48:00,
2013-04-11 20:03:00,60.8,57.0,29.88,NE,45,12.0,21.0,87,0.00,,,0.00,weatherlink.com 1.10,2013-04-11 18:03:00,
2013-04-11 20:18:00,60.4,57.0,29.88,NE,40,13.0,21.0,88,0.00,,,0.00,weatherlink.com 1.10,2013-04-11 18:18:00,
2013-04-11 20:33:00,60.2,57.0,29.88,ENE,57,9.0,18.0,89,0.00,,,0.00,weatherlink.com 1.10,2013-04-11 18:33:00,
2013-04-11 20:48:00,59.8,57.0,29.88,NE,39,13.0,20.0,90,0.00,,,0.00,weatherlink.com 1.10,2013-04-11 18:48:00,
2013-04-11 21:18:00,59.2,57.0,29.89,NE,41,7.0,16.0,91,0.00,,,0.00,weatherlink.com 1.10,2013-04-11 19:18:00,
2013-04-11 21:33:00,58.9,57.0,29.89,NNE,32,8.0,19.0,92,0.00,,,0.00,weatherlink.com 1.10,2013-04-11 19:33:00,
2013-04-11 21:48:00,58.7,57.0,29.89,NNE,26,15.0,15.0,93,0.00,,,0.00,weatherlink.com 1.10,2013-04-11 19:48:00,
2013-04-11 22:03:00,58.4,56.0,29.89,NNE,32,12.0,15.0,93,0.00,,,0.00,weatherlink.com 1.10,2013-04-11 20:03:00,
2013-04-11 22:18:00,58.2,56.0,29.89,North,9,7.0,14.0,93,0.00,,,0.00,weatherlink.com 1.10,2013-04-11 20:18:00,
2013-04-11 22:33:00,58.1,56.0,29.90,NE,47,9.0,17.0,94,0.00,,,0.00,weatherlink.com 1.10,2013-04-11 20:33:00,
2013-04-11 22:48:00,58.3,57.0,29.91,NE,44,8.0,16.0,94,0.00,,,0.00,weatherlink.com 1.10,2013-04-11 20:48:00,
2013-04-11 23:03:00,58.3,57.0,29.91,NE,40,7.0,16.0,94,0.00,,,0.00,weatherlink.com 1.10,2013-04-11 21:03:00,
2013-04-11 23:18:00,58.2,57.0,29.91,NNE,27,11.0,15.0,94,0.00,,,0.00,weatherlink.com 1.10,2013-04-11 21:18:00,
2013-04-11 23:33:00,58.3,57.0,29.91,NE,34,10.0,17.0,94,0.00,,,0.00,weatherlink.com 1.10,2013-04-11 21:33:00,
2013-04-11 23:48:00,58.1,56.0,29.92,NE,41,5.0,10.0,94,0.00,,,0.00,weatherlink.com 1.10,2013-04-11 21:48:00,